createdAt,value
2023-03-11T00:00:00.926Z,974.3
2023-03-11T00:01:00.700Z,974.7
2023-03-11T00:02:00.678Z,974.5
2023-03-11T00:03:00.548Z,974.5
2023-03-11T00:04:00.539Z,974.9
2023-03-11T00:05:00.529Z,974.5
2023-03-11T00:06:00.491Z,974.7
2023-03-11T00:07:00.485Z,974.9
2023-03-11T00:08:00.476Z,974.9
2023-03-11T00:09:00.480Z,975.4
2023-03-11T00:10:00.632Z,974.5
2023-03-11T00:11:00.501Z,974.5
2023-03-11T00:12:00.638Z,974.9
2023-03-11T00:13:00.806Z,974.9
2023-03-11T00:14:00.508Z,974.9
2023-03-11T00:15:00.516Z,974.5
2023-03-11T00:16:00.491Z,974.7
2023-03-11T00:17:00.490Z,974.9
2023-03-11T00:18:00.480Z,974.7
2023-03-11T00:19:00.496Z,974.5
2023-03-11T00:20:00.593Z,974.9
2023-03-11T00:21:00.489Z,974.7
2023-03-11T00:22:00.485Z,974.9
2023-03-11T00:23:00.514Z,975.4
2023-03-11T00:24:00.553Z,975.4
2023-03-11T00:25:00.571Z,975.4
2023-03-11T00:26:00.673Z,975.6
2023-03-11T00:27:00.744Z,975.4
2023-03-11T00:28:00.630Z,974.9
2023-03-11T00:29:00.742Z,974.9
2023-03-11T00:30:00.856Z,974.5
2023-03-11T00:31:00.714Z,974.5
2023-03-11T00:32:00.672Z,974.5
2023-03-11T00:33:00.647Z,974.9
2023-03-11T00:34:00.613Z,975.4
2023-03-11T00:35:00.712Z,975.4
2023-03-11T00:36:00.720Z,975.4
2023-03-11T00:37:00.636Z,975.4
2023-03-11T00:38:01.446Z,975.6
2023-03-11T00:39:00.762Z,975.8
2023-03-11T00:40:00.953Z,975.8
2023-03-11T00:41:00.832Z,976
2023-03-11T00:42:01.479Z,976
2023-03-11T00:43:00.779Z,976
2023-03-11T00:44:00.780Z,976
2023-03-11T00:45:00.858Z,975.8
2023-03-11T00:46:00.724Z,975.8
2023-03-11T00:47:00.735Z,975.8
2023-03-11T00:48:00.686Z,976.2
2023-03-11T00:49:00.730Z,976.2
2023-03-11T00:50:00.919Z,975.8
2023-03-11T00:51:00.631Z,976.2
2023-03-11T00:52:00.550Z,976.2
2023-03-11T00:53:00.599Z,976.7
2023-03-11T00:54:00.754Z,976.7
2023-03-11T00:55:00.677Z,976.7
2023-03-11T00:56:00.579Z,976.7
2023-03-11T00:57:00.572Z,976.2
2023-03-11T00:58:00.523Z,976.2
2023-03-11T00:59:00.518Z,975.8
2023-03-11T01:00:00.759Z,975.8
2023-03-11T01:01:00.584Z,976.2
2023-03-11T01:02:00.517Z,976.2
2023-03-11T01:03:00.529Z,976.4
2023-03-11T01:04:00.536Z,976.4
2023-03-11T01:05:00.615Z,975.8
2023-03-11T01:06:00.529Z,976
2023-03-11T01:07:00.602Z,976.2
2023-03-11T01:08:00.634Z,976.2
2023-03-11T01:09:01.280Z,976.2
2023-03-11T01:10:00.638Z,976.2
2023-03-11T01:11:00.530Z,975.8
2023-03-11T01:12:00.532Z,975.4
2023-03-11T01:13:00.601Z,975.4
2023-03-11T01:14:00.529Z,975.1
2023-03-11T01:15:00.637Z,974.7
2023-03-11T01:16:00.557Z,974.9
2023-03-11T01:17:00.518Z,974.9
2023-03-11T01:18:00.527Z,974.5
2023-03-11T01:19:00.571Z,974.9
2023-03-11T01:20:00.635Z,975.4
2023-03-11T01:21:00.570Z,975.1
2023-03-11T01:22:00.517Z,974.9
2023-03-11T01:23:00.559Z,974.9
2023-03-11T01:24:00.550Z,975.4
2023-03-11T01:25:00.576Z,975.4
2023-03-11T01:26:00.558Z,975.1
2023-03-11T01:27:00.558Z,974.9
2023-03-11T01:28:00.538Z,975.4
2023-03-11T01:29:00.523Z,975.4
2023-03-11T01:30:00.643Z,976
2023-03-11T01:31:00.563Z,975.4
2023-03-11T01:32:00.573Z,975.1
2023-03-11T01:33:00.541Z,974.9
2023-03-11T01:34:00.541Z,974.9
2023-03-11T01:35:00.678Z,974.9
2023-03-11T01:36:00.607Z,975.4
2023-03-11T01:37:00.554Z,975.4
2023-03-11T01:38:00.544Z,975.6
2023-03-11T01:39:00.528Z,975.6
2023-03-11T01:40:00.588Z,975.8
2023-03-11T01:41:00.557Z,975.8
2023-03-11T01:42:00.577Z,975.8
2023-03-11T01:43:00.547Z,975.6
2023-03-11T01:44:00.538Z,975.6
2023-03-11T01:45:00.617Z,975.6
2023-03-11T01:46:00.585Z,975.6
2023-03-11T01:47:00.578Z,975.8
2023-03-11T01:48:00.542Z,975.6
2023-03-11T01:49:00.565Z,975.8
2023-03-11T01:50:00.566Z,975.6
2023-03-11T01:51:00.565Z,975.4
2023-03-11T01:52:00.542Z,975.4
2023-03-11T01:53:00.561Z,975.4
2023-03-11T01:54:00.564Z,975.4
2023-03-11T01:55:00.575Z,974.9
2023-03-11T01:56:00.571Z,975.4
2023-03-11T01:57:00.573Z,975.6
2023-03-11T01:58:00.556Z,975.8
2023-03-11T01:59:00.550Z,975.8
2023-03-11T02:00:00.761Z,975.4
2023-03-11T02:01:00.599Z,974.9
2023-03-11T02:02:00.775Z,974.7
2023-03-11T02:03:00.692Z,974.5
2023-03-11T02:04:00.897Z,974.9
2023-03-11T02:05:02.001Z,974.9
2023-03-11T02:06:00.620Z,975.4
2023-03-11T02:07:00.593Z,975.4
2023-03-11T02:08:00.648Z,975.4
2023-03-11T02:09:00.638Z,975.8
2023-03-11T02:10:00.826Z,975.8
2023-03-11T02:11:01.762Z,975.8
2023-03-11T02:12:00.600Z,975.1
2023-03-11T02:13:00.630Z,974.9
2023-03-11T02:14:00.655Z,975.4
2023-03-11T02:15:00.637Z,975.4
2023-03-11T02:16:00.791Z,974.7
2023-03-11T02:17:00.685Z,974.9
2023-03-11T02:18:00.597Z,974.7
2023-03-11T02:19:00.602Z,974.7
2023-03-11T02:20:00.605Z,974.5
2023-03-11T02:21:00.609Z,974.9
2023-03-11T02:22:00.605Z,974.9
2023-03-11T02:23:00.595Z,974.7
2023-03-11T02:24:00.604Z,974.5
2023-03-11T02:25:00.611Z,974.5
2023-03-11T02:26:00.610Z,974.9
2023-03-11T02:27:00.618Z,974.9
2023-03-11T02:28:00.614Z,974.5
2023-03-11T02:29:00.617Z,974.5
2023-03-11T02:30:00.641Z,974.7
2023-03-11T02:31:00.703Z,974.7
2023-03-11T02:32:00.622Z,974.5
2023-03-11T02:33:00.601Z,974.9
2023-03-11T02:34:00.613Z,974.3
2023-03-11T02:35:00.658Z,974.3
2023-03-11T02:36:00.668Z,974.5
2023-03-11T02:37:00.624Z,975.1
2023-03-11T02:38:00.616Z,974.9
2023-03-11T02:39:00.616Z,974.5
2023-03-11T02:40:00.644Z,973.8
2023-03-11T02:41:00.627Z,973.6
2023-03-11T02:42:00.675Z,973.6
2023-03-11T02:43:00.621Z,973.8
2023-03-11T02:44:00.621Z,973.4
2023-03-11T02:45:00.711Z,973.6
2023-03-11T02:46:00.616Z,973.4
2023-03-11T02:47:00.687Z,973.2
2023-03-11T02:48:00.640Z,973.6
2023-03-11T02:49:00.653Z,973.2
2023-03-11T02:50:00.643Z,973.2
2023-03-11T02:51:00.605Z,973.2
2023-03-11T02:52:00.632Z,973.2
2023-03-11T02:53:00.624Z,973.2
2023-03-11T02:54:00.622Z,973.6
2023-03-11T02:55:00.671Z,973.2
2023-03-11T02:56:00.628Z,973.4
2023-03-11T02:57:00.627Z,973
2023-03-11T02:58:00.638Z,973.2
2023-03-11T02:59:00.633Z,973.6
2023-03-11T03:00:00.674Z,973.6
2023-03-11T03:01:01.497Z,973.4
2023-03-11T03:02:01.450Z,973.4
2023-03-11T03:03:01.433Z,973.2
2023-03-11T03:04:02.309Z,973.6
2023-03-11T03:05:01.443Z,973.6
2023-03-11T03:06:01.428Z,973.6
2023-03-11T03:07:01.442Z,973.6
2023-03-11T03:08:01.442Z,973.4
2023-03-11T03:09:01.446Z,973.2
2023-03-11T03:10:01.504Z,973.2
2023-03-11T03:11:02.267Z,973.2
2023-03-11T03:12:01.442Z,973.6
2023-03-11T03:13:01.463Z,973.6
2023-03-11T03:14:01.429Z,973.6
2023-03-11T03:15:01.429Z,974
2023-03-11T03:16:01.445Z,974.5
2023-03-11T03:17:01.597Z,974.5
2023-03-11T03:18:01.468Z,974.7
2023-03-11T03:19:01.454Z,974.9
2023-03-11T03:20:01.520Z,974.5
2023-03-11T03:21:01.449Z,974.5
2023-03-11T03:22:01.449Z,974.9
2023-03-11T03:23:01.450Z,974.9
2023-03-11T03:24:01.474Z,974.9
2023-03-11T03:25:01.495Z,975.1
2023-03-11T03:26:01.455Z,975.4
2023-03-11T03:27:01.454Z,975.4
2023-03-11T03:28:01.492Z,975.6
2023-03-11T03:29:01.455Z,975.4
2023-03-11T03:30:01.468Z,975.4
2023-03-11T03:31:01.477Z,975.4
2023-03-11T03:32:01.527Z,975.4
2023-03-11T03:33:02.186Z,975.4
2023-03-11T03:34:01.466Z,975.4
2023-03-11T03:35:01.468Z,974.9
2023-03-11T03:36:01.474Z,975.4
2023-03-11T03:37:01.489Z,975.8
2023-03-11T03:38:01.469Z,975.4
2023-03-11T03:39:01.469Z,975.8
2023-03-11T03:40:01.508Z,975.6
2023-03-11T03:41:01.724Z,975.6
2023-03-11T03:42:01.473Z,975.8
2023-03-11T03:43:01.449Z,975.8
2023-03-11T03:44:01.438Z,975.8
2023-03-11T03:45:01.455Z,976
2023-03-11T03:46:01.533Z,976
2023-03-11T03:47:01.460Z,975.8
2023-03-11T03:48:01.461Z,975.8
2023-03-11T03:49:01.448Z,975.6
2023-03-11T03:50:01.511Z,975.6
2023-03-11T03:51:01.464Z,976.2
2023-03-11T03:52:01.531Z,976.2
2023-03-11T03:53:01.633Z,976.2
2023-03-11T03:54:01.453Z,976.2
2023-03-11T03:55:01.474Z,976.2
2023-03-11T03:56:01.451Z,976.4
2023-03-11T03:57:01.477Z,976
2023-03-11T03:58:01.461Z,975.8
2023-03-11T03:59:01.468Z,976.2
2023-03-11T04:00:01.527Z,975.8
2023-03-11T04:01:01.471Z,975.8
2023-03-11T04:02:01.558Z,975.8
2023-03-11T04:03:01.565Z,975.8
2023-03-11T04:04:01.478Z,976
2023-03-11T04:05:01.492Z,976
2023-03-11T04:06:01.496Z,976.2
2023-03-11T04:07:01.474Z,976.2
2023-03-11T04:08:01.467Z,976.2
2023-03-11T04:09:01.495Z,976
2023-03-11T04:10:01.520Z,976.2
2023-03-11T04:11:01.469Z,976
2023-03-11T04:12:01.478Z,975.8
2023-03-11T04:13:01.474Z,976
2023-03-11T04:14:01.476Z,976.2
2023-03-11T04:15:01.501Z,976.2
2023-03-11T04:16:01.499Z,975.6
2023-03-11T04:17:01.511Z,975.4
2023-03-11T04:18:01.968Z,975.6
2023-03-11T04:19:01.570Z,975.8
2023-03-11T04:20:01.521Z,975.6
2023-03-11T04:21:01.498Z,975.8
2023-03-11T04:22:01.478Z,975.8
2023-03-11T04:23:01.499Z,975.6
2023-03-11T04:24:01.496Z,975.6
2023-03-11T04:25:01.519Z,975.4
2023-03-11T04:26:01.504Z,975.4
2023-03-11T04:27:01.485Z,975.4
2023-03-11T04:28:01.487Z,975.6
2023-03-11T04:29:01.500Z,975.4
2023-03-11T04:30:01.544Z,975.4
2023-03-11T04:31:01.638Z,975.4
2023-03-11T04:32:01.540Z,975.4
2023-03-11T04:33:01.498Z,975.4
2023-03-11T04:34:01.485Z,975.6
2023-03-11T04:35:01.515Z,975.4
2023-03-11T04:36:01.522Z,975.4
2023-03-11T04:37:01.486Z,975.6
2023-03-11T04:38:01.668Z,975.8
2023-03-11T04:39:01.503Z,975.6
2023-03-11T04:40:01.584Z,975.6
2023-03-11T04:41:01.495Z,975.4
2023-03-11T04:42:03.900Z,975.6
2023-03-11T04:43:01.504Z,975.4
2023-03-11T04:44:01.530Z,975.8
2023-03-11T04:45:01.543Z,975.6
2023-03-11T04:46:01.605Z,975.4
2023-03-11T04:47:01.548Z,974.9
2023-03-11T04:48:01.501Z,974.7
2023-03-11T04:49:01.519Z,974.9
2023-03-11T04:50:01.575Z,975.1
2023-03-11T04:51:01.692Z,975.1
2023-03-11T04:52:01.541Z,975.4
2023-03-11T04:53:01.563Z,974.9
2023-03-11T04:54:01.711Z,974.9
2023-03-11T04:55:01.580Z,974.9
2023-03-11T04:56:01.554Z,974.9
2023-03-11T04:57:01.678Z,974.9
2023-03-11T04:58:01.582Z,975.4
2023-03-11T04:59:01.604Z,975.4
2023-03-11T05:00:01.645Z,975.4
2023-03-11T05:01:01.633Z,975.4
2023-03-11T05:02:01.609Z,975.1
2023-03-11T05:03:01.709Z,974.7
2023-03-11T05:04:01.646Z,975.4
2023-03-11T05:05:01.720Z,975.1
2023-03-11T05:06:01.681Z,974.9
2023-03-11T05:07:01.627Z,974.9
2023-03-11T05:08:01.641Z,975.1
2023-03-11T05:09:02.383Z,974.7
2023-03-11T05:10:01.662Z,974.7
2023-03-11T05:11:01.682Z,974.9
2023-03-11T05:12:01.685Z,974.9
2023-03-11T05:13:01.664Z,974.5
2023-03-11T05:14:01.584Z,974
2023-03-11T05:15:01.569Z,973.2
2023-03-11T05:16:01.652Z,973.6
2023-03-11T05:17:01.711Z,973.6
2023-03-11T05:18:01.614Z,974
2023-03-11T05:19:01.574Z,974.5
2023-03-11T05:20:01.565Z,974.3
2023-03-11T05:21:01.734Z,974.5
2023-03-11T05:22:01.578Z,973.8
2023-03-11T05:23:01.549Z,973.8
2023-03-11T05:24:01.568Z,973.6
2023-03-11T05:25:01.619Z,973.8
2023-03-11T05:26:01.541Z,974
2023-03-11T05:27:01.564Z,974.3
2023-03-11T05:28:01.549Z,974.5
2023-03-11T05:29:01.553Z,974.5
2023-03-11T05:30:01.584Z,973.8
2023-03-11T05:31:01.654Z,973.4
2023-03-11T05:32:01.568Z,973.6
2023-03-11T05:33:01.556Z,973.2
2023-03-11T05:34:01.549Z,973.6
2023-03-11T05:35:01.583Z,973.8
2023-03-11T05:36:01.600Z,974.5
2023-03-11T05:37:03.089Z,974.5
2023-03-11T05:38:01.573Z,974.5
2023-03-11T05:39:01.554Z,974
2023-03-11T05:40:01.577Z,974
2023-03-11T05:41:01.599Z,974.3
2023-03-11T05:42:01.583Z,974
2023-03-11T05:43:01.561Z,974.3
2023-03-11T05:44:01.571Z,974
2023-03-11T05:45:01.568Z,974.5
2023-03-11T05:46:01.601Z,974.3
2023-03-11T05:47:01.707Z,974.3
2023-03-11T05:48:01.568Z,974.5
2023-03-11T05:49:01.574Z,974.5
2023-03-11T05:50:01.576Z,974
2023-03-11T05:51:01.591Z,974.5
2023-03-11T05:52:01.625Z,974.3
2023-03-11T05:53:01.574Z,974.5
2023-03-11T05:54:01.595Z,974.5
2023-03-11T05:55:01.593Z,974.3
2023-03-11T05:56:00.489Z,974.3
2023-03-11T05:57:00.495Z,974
2023-03-11T05:58:00.556Z,974
2023-03-11T05:59:00.480Z,974
2023-03-11T06:00:00.502Z,974.3
2023-03-11T06:01:00.530Z,974.3
2023-03-11T06:02:00.481Z,974.5
2023-03-11T06:03:00.504Z,974
2023-03-11T06:04:00.576Z,974.5
2023-03-11T06:05:00.642Z,974.3
2023-03-11T06:06:00.497Z,974
2023-03-11T06:07:00.519Z,974
2023-03-11T06:08:00.522Z,973.6
2023-03-11T06:09:00.491Z,974
2023-03-11T06:10:00.503Z,973.6
2023-03-11T06:11:00.526Z,973.4
2023-03-11T06:12:00.501Z,973.2
2023-03-11T06:13:00.523Z,973
2023-03-11T06:14:00.494Z,972.7
2023-03-11T06:15:00.494Z,973
2023-03-11T06:16:00.567Z,972.7
2023-03-11T06:17:00.510Z,972.7
2023-03-11T06:18:00.516Z,973.2
2023-03-11T06:19:00.513Z,973.2
2023-03-11T06:20:00.515Z,973
2023-03-11T06:21:00.538Z,973.2
2023-03-11T06:22:00.521Z,973.6
2023-03-11T06:23:00.502Z,974
2023-03-11T06:24:00.508Z,974.5
2023-03-11T06:25:00.510Z,974.3
2023-03-11T06:26:00.525Z,974
2023-03-11T06:27:00.513Z,973.2
2023-03-11T06:28:00.506Z,973.6
2023-03-11T06:29:00.508Z,973.2
2023-03-11T06:30:00.507Z,973
2023-03-11T06:31:00.529Z,973.4
2023-03-11T06:32:00.508Z,973
2023-03-11T06:33:00.538Z,973.2
2023-03-11T06:34:00.534Z,972.7
2023-03-11T06:35:00.510Z,972.7
2023-03-11T06:36:00.624Z,973.2
2023-03-11T06:37:00.551Z,972.7
2023-03-11T06:38:00.522Z,973
2023-03-11T06:39:00.541Z,973.2
2023-03-11T06:40:00.534Z,973.4
2023-03-11T06:41:00.533Z,973
2023-03-11T06:42:00.514Z,973.2
2023-03-11T06:43:00.535Z,973.6
2023-03-11T06:44:00.542Z,973.8
2023-03-11T06:45:00.537Z,973.8
2023-03-11T06:46:00.653Z,974
2023-03-11T06:47:00.524Z,974
2023-03-11T06:48:00.526Z,973.8
2023-03-11T06:49:00.528Z,973.6
2023-03-11T06:50:00.539Z,973.6
2023-03-11T06:51:00.546Z,973.2
2023-03-11T06:52:00.552Z,973
2023-03-11T06:53:00.531Z,972.3
2023-03-11T06:54:00.561Z,972.3
2023-03-11T06:55:00.528Z,971.9
2023-03-11T06:56:00.561Z,971.9
2023-03-11T06:57:00.535Z,972.3
2023-03-11T06:58:00.531Z,972.3
2023-03-11T06:59:00.549Z,972.3
2023-03-11T07:00:00.544Z,972.3
2023-03-11T07:01:00.649Z,972.7
2023-03-11T07:02:00.561Z,972.7
2023-03-11T07:03:00.541Z,972.3
2023-03-11T07:04:00.592Z,971.9
2023-03-11T07:05:00.557Z,971.4
2023-03-11T07:06:00.569Z,971.9
2023-03-11T07:07:00.563Z,971.9
2023-03-11T07:08:00.568Z,972.3
2023-03-11T07:09:00.556Z,972.7
2023-03-11T07:10:00.571Z,972.5
2023-03-11T07:11:00.572Z,972.1
2023-03-11T07:12:00.557Z,972.3
2023-03-11T07:13:00.560Z,971.9
2023-03-11T07:14:00.583Z,971.4
2023-03-11T07:15:00.580Z,971.9
2023-03-11T07:16:00.553Z,971.9
2023-03-11T07:17:00.606Z,971.4
2023-03-11T07:18:00.563Z,971.4
2023-03-11T07:19:00.592Z,971.4
2023-03-11T07:20:00.582Z,971
2023-03-11T07:21:00.589Z,971
2023-03-11T07:22:00.573Z,971
2023-03-11T07:23:00.565Z,971.2
2023-03-11T07:24:00.599Z,971.4
2023-03-11T07:25:00.606Z,970.4
2023-03-11T07:26:00.567Z,970.1
2023-03-11T07:27:00.570Z,970.4
2023-03-11T07:28:00.575Z,970.1
2023-03-11T07:29:00.574Z,970.1
2023-03-11T07:30:00.589Z,970.6
2023-03-11T07:31:00.582Z,970.4
2023-03-11T07:32:00.647Z,970.8
2023-03-11T07:33:00.766Z,970.6
2023-03-11T07:34:00.600Z,969.9
2023-03-11T07:35:00.592Z,968.8
2023-03-11T07:36:00.730Z,969
2023-03-11T07:37:00.577Z,969.3
2023-03-11T07:38:00.593Z,969.7
2023-03-11T07:39:02.548Z,968.8
2023-03-11T07:40:00.605Z,969.3
2023-03-11T07:41:00.610Z,969.7
2023-03-11T07:42:00.581Z,969.3
2023-03-11T07:43:00.604Z,968.8
2023-03-11T07:44:00.584Z,968.4
2023-03-11T07:45:00.605Z,968.4
2023-03-11T07:46:00.662Z,968
2023-03-11T07:47:00.585Z,967.5
2023-03-11T07:48:00.593Z,967.7
2023-03-11T07:49:00.608Z,967.5
2023-03-11T07:50:00.618Z,967.5
2023-03-11T07:51:00.606Z,968.4
2023-03-11T07:52:00.608Z,968
2023-03-11T07:53:00.603Z,968.4
2023-03-11T07:54:00.617Z,968.2
2023-03-11T07:55:00.632Z,968.4
2023-03-11T07:56:00.613Z,967.5
2023-03-11T07:57:00.938Z,967.5
2023-03-11T07:58:00.627Z,967.1
2023-03-11T07:59:00.599Z,967.5
2023-03-11T08:00:00.618Z,968
2023-03-11T08:01:00.613Z,967.3
2023-03-11T08:02:00.619Z,967.3
2023-03-11T08:03:00.604Z,967.1
2023-03-11T08:04:00.687Z,966.7
2023-03-11T08:05:00.625Z,966.7
2023-03-11T08:06:00.619Z,967.1
2023-03-11T08:07:00.623Z,966.7
2023-03-11T08:08:00.606Z,964.9
2023-03-11T08:09:00.609Z,964.7
2023-03-11T08:10:00.628Z,964
2023-03-11T08:11:00.631Z,964.3
2023-03-11T08:12:00.613Z,963.8
2023-03-11T08:13:00.616Z,963.6
2023-03-11T08:14:00.609Z,963.6
2023-03-11T08:15:00.648Z,963.2
2023-03-11T08:16:00.689Z,963.4
2023-03-11T08:17:00.609Z,963.2
2023-03-11T08:18:00.611Z,963.2
2023-03-11T08:19:00.630Z,963.6
2023-03-11T08:20:00.637Z,964.5
2023-03-11T08:21:00.636Z,964.3
2023-03-11T08:22:00.617Z,964.9
2023-03-11T08:23:00.617Z,964.7
2023-03-11T08:24:00.626Z,964.3
2023-03-11T08:25:00.640Z,963.2
2023-03-11T08:26:00.671Z,963.4
2023-03-11T08:27:00.651Z,963.6
2023-03-11T08:28:00.629Z,963.6
2023-03-11T08:29:00.647Z,964.3
2023-03-11T08:30:00.649Z,965.4
2023-03-11T08:31:00.760Z,965.4
2023-03-11T08:32:00.634Z,965.1
2023-03-11T08:33:00.631Z,963.6
2023-03-11T08:34:00.648Z,963
2023-03-11T08:35:00.642Z,963.2
2023-03-11T08:36:00.770Z,962.3
2023-03-11T08:37:00.727Z,963.2
2023-03-11T08:38:00.696Z,962.7
2023-03-11T08:39:00.854Z,962.3
2023-03-11T08:40:00.714Z,961.2
2023-03-11T08:41:00.760Z,962.1
2023-03-11T08:42:00.765Z,962.5
2023-03-11T08:43:00.721Z,962.5
2023-03-11T08:44:00.829Z,962.3
2023-03-11T08:45:00.738Z,962.7
2023-03-11T08:46:00.900Z,962.7
2023-03-11T08:47:00.841Z,961.4
2023-03-11T08:48:00.830Z,961
2023-03-11T08:49:01.356Z,961.4
2023-03-11T08:50:00.751Z,961.4
2023-03-11T08:51:00.865Z,961.9
2023-03-11T08:52:00.829Z,961.9
2023-03-11T08:53:00.782Z,961.4
2023-03-11T08:54:00.842Z,962.3
2023-03-11T08:55:00.659Z,962.7
2023-03-11T08:56:00.661Z,961.9
2023-03-11T08:57:00.716Z,962.3
2023-03-11T08:58:00.822Z,963.2
2023-03-11T08:59:00.837Z,962.7
2023-03-11T09:00:00.692Z,963.6
2023-03-11T09:01:00.820Z,962.7
2023-03-11T09:02:00.732Z,963.2
2023-03-11T09:03:00.835Z,962.3
2023-03-11T09:04:00.669Z,962.7
2023-03-11T09:05:00.673Z,963.2
2023-03-11T09:06:00.774Z,962.1
2023-03-11T09:07:00.694Z,962.1
2023-03-11T09:08:00.664Z,960.8
2023-03-11T09:09:00.664Z,961
2023-03-11T09:10:00.699Z,960.4
2023-03-11T09:11:00.685Z,960.6
2023-03-11T09:12:00.691Z,960.1
2023-03-11T09:13:00.691Z,961
2023-03-11T09:14:00.667Z,960.6
2023-03-11T09:15:00.668Z,960.4
2023-03-11T09:16:00.698Z,959.7
2023-03-11T09:17:00.693Z,960.8
2023-03-11T09:18:00.674Z,961.4
2023-03-11T09:19:00.675Z,961
2023-03-11T09:20:00.687Z,962.1
2023-03-11T09:21:00.715Z,961.9
2023-03-11T09:22:00.707Z,960.6
2023-03-11T09:23:00.699Z,960.4
2023-03-11T09:24:00.686Z,958.4
2023-03-11T09:25:00.686Z,959
2023-03-11T09:26:00.704Z,959.3
2023-03-11T09:27:00.703Z,958
2023-03-11T09:28:00.690Z,959.3
2023-03-11T09:29:01.456Z,959.3
2023-03-11T09:30:00.688Z,960.1
2023-03-11T09:31:00.701Z,959.5
2023-03-11T09:32:00.714Z,958
2023-03-11T09:33:00.690Z,958
2023-03-11T09:34:00.706Z,959.7
2023-03-11T09:35:00.705Z,959.5
2023-03-11T09:36:00.744Z,958.8
2023-03-11T09:37:00.733Z,958.4
2023-03-11T09:38:00.704Z,959.7
2023-03-11T09:39:00.702Z,958.2
2023-03-11T09:40:00.697Z,958
2023-03-11T09:41:00.701Z,958.8
2023-03-11T09:42:00.728Z,959.7
2023-03-11T09:43:00.707Z,959.7
2023-03-11T09:44:00.707Z,958.8
2023-03-11T09:45:00.735Z,958.4
2023-03-11T09:46:00.729Z,958.8
2023-03-11T09:47:00.800Z,959.3
2023-03-11T09:48:00.717Z,960.1
2023-03-11T09:49:00.735Z,959.7
2023-03-11T09:50:00.728Z,958.8
2023-03-11T09:51:00.736Z,959.3
2023-03-11T09:52:00.842Z,959.7
2023-03-11T09:53:00.731Z,959.9
2023-03-11T09:54:00.733Z,960.1
2023-03-11T09:55:00.719Z,961
2023-03-11T09:56:00.713Z,959.3
2023-03-11T09:57:00.747Z,958
2023-03-11T09:58:00.811Z,958.4
2023-03-11T09:59:00.717Z,958.8
2023-03-11T10:00:00.733Z,956.9
2023-03-11T10:01:00.720Z,957.5
2023-03-11T10:02:00.807Z,957.1
2023-03-11T10:03:00.810Z,957.1
2023-03-11T10:04:00.721Z,958.4
2023-03-11T10:05:00.723Z,958
2023-03-11T10:06:00.748Z,957.1
2023-03-11T10:07:00.742Z,957.1
2023-03-11T10:08:00.746Z,956.7
2023-03-11T10:09:00.750Z,956.2
2023-03-11T10:10:00.733Z,957.1
2023-03-11T10:11:00.758Z,958.6
2023-03-11T10:12:00.727Z,958
2023-03-11T10:13:00.761Z,957.5
2023-03-11T10:14:00.726Z,955.4
2023-03-11T10:15:00.760Z,955.8
2023-03-11T10:16:00.797Z,955.6
2023-03-11T10:17:00.795Z,956.2
2023-03-11T10:18:00.737Z,956.7
2023-03-11T10:19:00.800Z,957.1
2023-03-11T10:20:00.760Z,956.4
2023-03-11T10:21:00.743Z,956.7
2023-03-11T10:22:00.754Z,957.1
2023-03-11T10:23:00.742Z,956.7
2023-03-11T10:24:00.759Z,955.8
2023-03-11T10:25:00.749Z,956.7
2023-03-11T10:26:00.754Z,955.8
2023-03-11T10:27:00.748Z,955.8
2023-03-11T10:28:00.746Z,955.8
2023-03-11T10:29:00.784Z,957.3
2023-03-11T10:30:00.755Z,958
2023-03-11T10:31:00.772Z,957.1
2023-03-11T10:32:00.875Z,956.2
2023-03-11T10:33:00.753Z,956
2023-03-11T10:34:00.774Z,955.4
2023-03-11T10:35:00.760Z,956.7
2023-03-11T10:36:00.831Z,957.1
2023-03-11T10:37:00.777Z,957.5
2023-03-11T10:38:00.762Z,956.4
2023-03-11T10:39:00.778Z,958.2
2023-03-11T10:40:00.760Z,957.1
2023-03-11T10:41:00.792Z,957.3
2023-03-11T10:42:00.788Z,957.5
2023-03-11T10:43:00.765Z,958.4
2023-03-11T10:44:00.762Z,956.7
2023-03-11T10:45:00.768Z,956.4
2023-03-11T10:46:00.797Z,957.1
2023-03-11T10:47:00.783Z,956.9
2023-03-11T10:48:00.763Z,955.1
2023-03-11T10:49:00.781Z,956
2023-03-11T10:50:00.762Z,956.2
2023-03-11T10:51:00.787Z,956.4
2023-03-11T10:52:00.782Z,956.9
2023-03-11T10:53:00.787Z,957.3
2023-03-11T10:54:00.769Z,957.5
2023-03-11T10:55:00.784Z,958
2023-03-11T10:56:00.827Z,958
2023-03-11T10:57:00.798Z,958.6
2023-03-11T10:58:00.777Z,957.1
2023-03-11T10:59:00.790Z,956.7
2023-03-11T11:00:00.772Z,957.7
2023-03-11T11:01:00.863Z,958.2
2023-03-11T11:02:00.888Z,957.7
2023-03-11T11:03:00.790Z,957.1
2023-03-11T11:04:00.926Z,956.9
2023-03-11T11:05:00.790Z,957.1
2023-03-11T11:06:00.814Z,956.7
2023-03-11T11:07:00.789Z,957.1
2023-03-11T11:08:00.818Z,958.4
2023-03-11T11:09:00.791Z,957.5
2023-03-11T11:10:00.796Z,955.6
2023-03-11T11:11:00.829Z,954
2023-03-11T11:12:00.788Z,954
2023-03-11T11:13:00.836Z,953.6
2023-03-11T11:14:00.816Z,954.9
2023-03-11T11:15:00.798Z,955.8
2023-03-11T11:16:00.824Z,953.6
2023-03-11T11:17:00.856Z,953.6
2023-03-11T11:18:00.801Z,955.1
2023-03-11T11:19:00.821Z,955.6
2023-03-11T11:20:00.824Z,956.9
2023-03-11T11:21:00.829Z,956.7
2023-03-11T11:22:00.809Z,955.8
2023-03-11T11:23:00.831Z,955.4
2023-03-11T11:24:00.828Z,956
2023-03-11T11:25:00.838Z,955.8
2023-03-11T11:26:00.812Z,956.4
2023-03-11T11:27:00.830Z,956.7
2023-03-11T11:28:00.825Z,954.5
2023-03-11T11:29:00.835Z,955.8
2023-03-11T11:30:00.838Z,956
2023-03-11T11:31:00.877Z,956.2
2023-03-11T11:32:00.818Z,956
2023-03-11T11:33:00.819Z,956
2023-03-11T11:34:00.851Z,956.2
2023-03-11T11:35:00.842Z,955.4
2023-03-11T11:36:00.824Z,955.4
2023-03-11T11:37:00.822Z,956.2
2023-03-11T11:38:00.840Z,956.7
2023-03-11T11:39:00.836Z,956.2
2023-03-11T11:40:00.850Z,956.2
2023-03-11T11:41:00.845Z,955.8
2023-03-11T11:42:00.821Z,956.2
2023-03-11T11:43:00.844Z,956.4
2023-03-11T11:44:00.853Z,955.8
2023-03-11T11:45:00.834Z,953.8
2023-03-11T11:46:00.856Z,952.7
2023-03-11T11:47:00.827Z,955.1
2023-03-11T11:48:00.829Z,955.8
2023-03-11T11:49:00.829Z,955.8
2023-03-11T11:50:00.855Z,954.3
2023-03-11T11:51:00.856Z,954.5
2023-03-11T11:52:00.834Z,954
2023-03-11T11:53:00.850Z,954
2023-03-11T11:54:00.837Z,954.9
2023-03-11T11:55:00.847Z,954.7
2023-03-11T11:56:00.822Z,954.5
2023-03-11T11:57:00.768Z,954.5
2023-03-11T11:58:00.753Z,953
2023-03-11T11:59:00.711Z,953.6
2023-03-11T12:00:00.702Z,954.5
2023-03-11T12:01:00.675Z,954.5
2023-03-11T12:02:00.642Z,953.6
2023-03-11T12:03:00.606Z,952.7
2023-03-11T12:04:00.683Z,954
2023-03-11T12:05:00.569Z,953.4
2023-03-11T12:06:00.607Z,952.7
2023-03-11T12:07:00.501Z,953.6
2023-03-11T12:08:00.456Z,953.8
2023-03-11T12:09:00.443Z,952.7
2023-03-11T12:10:09.784Z,953.2
2023-03-11T12:11:00.448Z,954
2023-03-11T12:12:00.427Z,952.7
2023-03-11T12:13:00.429Z,953.6
2023-03-11T12:14:00.455Z,951.9
2023-03-11T12:15:00.426Z,952.5
2023-03-11T12:16:00.477Z,952.7
2023-03-11T12:17:01.962Z,952.3
2023-03-11T12:18:00.428Z,953.2
2023-03-11T12:19:00.446Z,953.6
2023-03-11T12:20:00.456Z,953.6
2023-03-11T12:21:00.456Z,953.6
2023-03-11T12:22:00.434Z,953.2
2023-03-11T12:23:00.437Z,954
2023-03-11T12:24:00.462Z,954
2023-03-11T12:25:00.455Z,954.5
2023-03-11T12:26:00.472Z,954
2023-03-11T12:27:00.458Z,954.7
2023-03-11T12:28:00.435Z,954.5
2023-03-11T12:29:00.441Z,955.4
2023-03-11T12:30:00.460Z,954.5
2023-03-11T12:31:00.536Z,953.8
2023-03-11T12:32:00.459Z,954
2023-03-11T12:33:00.445Z,952.5
2023-03-11T12:34:00.456Z,953.6
2023-03-11T12:35:00.466Z,954
2023-03-11T12:36:00.657Z,953.4
2023-03-11T12:37:00.456Z,953.2
2023-03-11T12:38:00.451Z,951.9
2023-03-11T12:39:00.480Z,951.9
2023-03-11T12:40:00.460Z,951.4
2023-03-11T12:41:00.480Z,950.6
2023-03-11T12:42:00.455Z,952.3
2023-03-11T12:43:00.456Z,953.2
2023-03-11T12:44:00.483Z,953.6
2023-03-11T12:45:00.480Z,954.3
2023-03-11T12:46:00.486Z,954.3
2023-03-11T12:47:00.602Z,954
2023-03-11T12:48:00.463Z,954
2023-03-11T12:49:00.458Z,954.7
2023-03-11T12:50:00.463Z,953.6
2023-03-11T12:51:00.762Z,953.6
2023-03-11T12:52:00.480Z,953.2
2023-03-11T12:53:00.493Z,954
2023-03-11T12:54:00.484Z,954.7
2023-03-11T12:55:01.167Z,954.9
2023-03-11T12:56:00.497Z,955.8
2023-03-11T12:57:00.475Z,956.2
2023-03-11T12:58:00.498Z,956.7